sensor_id;sensor_type;location;lat;lon;timestamp;P1;durP1;ratioP1;P2;durP2;ratioP2
66669;SDS011;53568;52.164;4.472;2023-12-20T00:00:02;10.79;;;6.79;;
66669;SDS011;53568;52.164;4.472;2023-12-20T00:02:28;9.98;;;6.29;;
66669;SDS011;53568;52.164;4.472;2023-12-20T00:04:53;10.78;;;6.84;;
66669;SDS011;53568;52.164;4.472;2023-12-20T00:07:19;9.62;;;6.20;;
66669;SDS011;53568;52.164;4.472;2023-12-20T00:09:44;9.84;;;6.44;;
66669;SDS011;53568;52.164;4.472;2023-12-20T00:12:10;10.76;;;6.94;;
66669;SDS011;53568;52.164;4.472;2023-12-20T00:14:35;10.54;;;6.76;;
66669;SDS011;53568;52.164;4.472;2023-12-20T00:17:01;10.65;;;6.90;;
66669;SDS011;53568;52.164;4.472;2023-12-20T00:19:26;9.56;;;6.31;;
66669;SDS011;53568;52.164;4.472;2023-12-20T00:21:52;9.99;;;6.65;;
66669;SDS011;53568;52.164;4.472;2023-12-20T00:24:17;9.52;;;6.36;;
66669;SDS011;53568;52.164;4.472;2023-12-20T00:26:43;9.59;;;6.41;;
66669;SDS011;53568;52.164;4.472;2023-12-20T00:29:08;10.26;;;6.84;;
66669;SDS011;53568;52.164;4.472;2023-12-20T00:31:34;10.74;;;7.09;;
66669;SDS011;53568;52.164;4.472;2023-12-20T00:33:59;10.16;;;6.81;;
66669;SDS011;53568;52.164;4.472;2023-12-20T00:36:25;10.23;;;6.85;;
66669;SDS011;53568;52.164;4.472;2023-12-20T00:38:50;10.23;;;6.92;;
66669;SDS011;53568;52.164;4.472;2023-12-20T00:41:16;10.32;;;6.95;;
66669;SDS011;53568;52.164;4.472;2023-12-20T00:43:42;9.93;;;6.75;;
66669;SDS011;53568;52.164;4.472;2023-12-20T00:46:07;8.79;;;6.22;;
66669;SDS011;53568;52.164;4.472;2023-12-20T00:48:33;9.91;;;6.78;;
66669;SDS011;53568;52.164;4.472;2023-12-20T00:50:58;10.85;;;7.17;;
66669;SDS011;53568;52.164;4.472;2023-12-20T00:53:24;11.12;;;7.37;;
66669;SDS011;53568;52.164;4.472;2023-12-20T00:55:49;10.44;;;7.09;;
66669;SDS011;53568;52.164;4.472;2023-12-20T00:58:15;11.11;;;7.39;;
66669;SDS011;53568;52.164;4.472;2023-12-20T01:00:41;11.30;;;7.49;;
66669;SDS011;53568;52.164;4.472;2023-12-20T01:03:08;11.80;;;7.74;;
66669;SDS011;53568;52.164;4.472;2023-12-20T01:05:36;12.29;;;7.92;;
66669;SDS011;53568;52.164;4.472;2023-12-20T01:08:02;11.75;;;7.60;;
66669;SDS011;53568;52.164;4.472;2023-12-20T01:10:28;11.33;;;7.53;;
66669;SDS011;53568;52.164;4.472;2023-12-20T01:12:54;10.69;;;7.11;;
66669;SDS011;53568;52.164;4.472;2023-12-20T01:15:20;11.56;;;7.65;;
66669;SDS011;53568;52.164;4.472;2023-12-20T01:17:45;12.21;;;8.13;;
66669;SDS011;53568;52.164;4.472;2023-12-20T01:20:11;11.48;;;7.58;;
66669;SDS011;53568;52.164;4.472;2023-12-20T01:22:36;11.84;;;7.62;;
66669;SDS011;53568;52.164;4.472;2023-12-20T01:25:02;11.41;;;7.31;;
66669;SDS011;53568;52.164;4.472;2023-12-20T01:27:27;11.29;;;7.30;;
66669;SDS011;53568;52.164;4.472;2023-12-20T01:29:53;11.44;;;7.34;;
66669;SDS011;53568;52.164;4.472;2023-12-20T01:32:19;11.09;;;7.13;;
66669;SDS011;53568;52.164;4.472;2023-12-20T01:34:45;11.31;;;7.24;;
66669;SDS011;53568;52.164;4.472;2023-12-20T01:37:10;11.91;;;7.63;;
66669;SDS011;53568;52.164;4.472;2023-12-20T01:39:36;11.10;;;7.21;;
66669;SDS011;53568;52.164;4.472;2023-12-20T01:42:01;10.89;;;7.11;;
66669;SDS011;53568;52.164;4.472;2023-12-20T01:44:27;11.45;;;7.53;;
66669;SDS011;53568;52.164;4.472;2023-12-20T01:46:53;11.54;;;7.50;;
66669;SDS011;53568;52.164;4.472;2023-12-20T01:49:19;13.39;;;8.40;;
66669;SDS011;53568;52.164;4.472;2023-12-20T01:51:45;12.92;;;8.10;;
66669;SDS011;53568;52.164;4.472;2023-12-20T01:54:11;13.01;;;8.12;;
66669;SDS011;53568;52.164;4.472;2023-12-20T01:56:37;12.67;;;7.91;;
66669;SDS011;53568;52.164;4.472;2023-12-20T01:59:05;12.92;;;8.20;;
66669;SDS011;53568;52.164;4.472;2023-12-20T02:01:34;13.06;;;8.33;;
66669;SDS011;53568;52.164;4.472;2023-12-20T02:04:00;13.15;;;8.39;;
66669;SDS011;53568;52.164;4.472;2023-12-20T02:06:30;12.38;;;7.86;;
66669;SDS011;53568;52.164;4.472;2023-12-20T02:08:57;12.31;;;7.87;;
66669;SDS011;53568;52.164;4.472;2023-12-20T02:11:22;13.37;;;8.40;;
66669;SDS011;53568;52.164;4.472;2023-12-20T02:13:50;13.73;;;8.54;;
66669;SDS011;53568;52.164;4.472;2023-12-20T02:16:15;13.23;;;8.31;;
66669;SDS011;53568;52.164;4.472;2023-12-20T02:18:42;12.65;;;8.09;;
66669;SDS011;53568;52.164;4.472;2023-12-20T02:21:09;12.89;;;8.10;;
66669;SDS011;53568;52.164;4.472;2023-12-20T02:23:35;13.18;;;8.23;;
66669;SDS011;53568;52.164;4.472;2023-12-20T02:26:00;13.32;;;8.39;;
66669;SDS011;53568;52.164;4.472;2023-12-20T02:28:26;13.01;;;8.33;;
66669;SDS011;53568;52.164;4.472;2023-12-20T02:30:52;12.89;;;8.09;;
66669;SDS011;53568;52.164;4.472;2023-12-20T02:33:18;11.97;;;7.60;;
66669;SDS011;53568;52.164;4.472;2023-12-20T02:35:43;11.94;;;7.62;;
66669;SDS011;53568;52.164;4.472;2023-12-20T02:38:09;12.95;;;8.19;;
66669;SDS011;53568;52.164;4.472;2023-12-20T02:40:34;12.33;;;7.75;;
66669;SDS011;53568;52.164;4.472;2023-12-20T02:43:00;12.73;;;8.09;;
66669;SDS011;53568;52.164;4.472;2023-12-20T02:45:26;12.46;;;8.03;;
66669;SDS011;53568;52.164;4.472;2023-12-20T02:47:52;11.58;;;7.53;;
66669;SDS011;53568;52.164;4.472;2023-12-20T02:50:17;12.11;;;7.90;;
66669;SDS011;53568;52.164;4.472;2023-12-20T02:52:44;13.28;;;8.49;;
66669;SDS011;53568;52.164;4.472;2023-12-20T02:55:10;12.20;;;7.86;;
66669;SDS011;53568;52.164;4.472;2023-12-20T02:57:42;14.55;;;8.90;;
66669;SDS011;53568;52.164;4.472;2023-12-20T03:00:08;13.65;;;8.58;;
66669;SDS011;53568;52.164;4.472;2023-12-20T03:02:35;13.57;;;8.59;;
66669;SDS011;53568;52.164;4.472;2023-12-20T03:05:01;13.11;;;8.20;;
66669;SDS011;53568;52.164;4.472;2023-12-20T03:07:27;14.72;;;8.97;;
66669;SDS011;53568;52.164;4.472;2023-12-20T03:09:53;13.99;;;8.73;;
66669;SDS011;53568;52.164;4.472;2023-12-20T03:12:18;12.94;;;8.19;;
66669;SDS011;53568;52.164;4.472;2023-12-20T03:14:44;13.26;;;8.45;;
66669;SDS011;53568;52.164;4.472;2023-12-20T03:17:09;13.33;;;8.56;;
66669;SDS011;53568;52.164;4.472;2023-12-20T03:19:35;11.18;;;7.35;;
66669;SDS011;53568;52.164;4.472;2023-12-20T03:22:01;12.13;;;7.91;;
66669;SDS011;53568;52.164;4.472;2023-12-20T03:24:26;12.51;;;8.12;;
66669;SDS011;53568;52.164;4.472;2023-12-20T03:26:52;13.19;;;8.46;;
66669;SDS011;53568;52.164;4.472;2023-12-20T03:29:18;13.08;;;8.33;;
66669;SDS011;53568;52.164;4.472;2023-12-20T03:31:43;13.19;;;8.30;;
66669;SDS011;53568;52.164;4.472;2023-12-20T03:34:09;12.97;;;8.24;;
66669;SDS011;53568;52.164;4.472;2023-12-20T03:36:35;12.96;;;8.19;;
66669;SDS011;53568;52.164;4.472;2023-12-20T03:39:01;13.78;;;8.65;;
66669;SDS011;53568;52.164;4.472;2023-12-20T03:41:27;14.23;;;8.83;;
66669;SDS011;53568;52.164;4.472;2023-12-20T03:43:52;14.11;;;8.71;;
66669;SDS011;53568;52.164;4.472;2023-12-20T03:46:17;14.68;;;9.17;;
66669;SDS011;53568;52.164;4.472;2023-12-20T03:48:43;14.02;;;8.81;;
66669;SDS011;53568;52.164;4.472;2023-12-20T03:51:08;14.94;;;9.30;;
66669;SDS011;53568;52.164;4.472;2023-12-20T03:53:34;15.77;;;9.80;;
66669;SDS011;53568;52.164;4.472;2023-12-20T03:55:59;14.12;;;8.79;;
66669;SDS011;53568;52.164;4.472;2023-12-20T03:58:25;13.61;;;8.58;;
66669;SDS011;53568;52.164;4.472;2023-12-20T04:00:50;12.79;;;8.18;;
66669;SDS011;53568;52.164;4.472;2023-12-20T04:03:16;14.07;;;8.93;;
66669;SDS011;53568;52.164;4.472;2023-12-20T04:05:41;15.27;;;9.60;;
66669;SDS011;53568;52.164;4.472;2023-12-20T04:08:07;13.59;;;8.58;;
66669;SDS011;53568;52.164;4.472;2023-12-20T04:10:34;12.58;;;8.07;;
66669;SDS011;53568;52.164;4.472;2023-12-20T04:12:59;12.94;;;8.43;;
66669;SDS011;53568;52.164;4.472;2023-12-20T04:15:25;13.11;;;8.59;;
66669;SDS011;53568;52.164;4.472;2023-12-20T04:17:50;13.33;;;8.67;;
66669;SDS011;53568;52.164;4.472;2023-12-20T04:20:16;11.85;;;7.67;;
66669;SDS011;53568;52.164;4.472;2023-12-20T04:22:41;12.48;;;8.12;;
66669;SDS011;53568;52.164;4.472;2023-12-20T04:25:07;12.06;;;7.91;;
66669;SDS011;53568;52.164;4.472;2023-12-20T04:27:33;13.35;;;8.54;;
66669;SDS011;53568;52.164;4.472;2023-12-20T04:29:59;13.79;;;8.82;;
66669;SDS011;53568;52.164;4.472;2023-12-20T04:32:24;13.96;;;8.87;;
66669;SDS011;53568;52.164;4.472;2023-12-20T04:34:50;12.97;;;8.30;;
66669;SDS011;53568;52.164;4.472;2023-12-20T04:37:15;13.18;;;8.48;;
66669;SDS011;53568;52.164;4.472;2023-12-20T04:39:41;13.35;;;8.42;;
66669;SDS011;53568;52.164;4.472;2023-12-20T04:42:07;13.57;;;8.54;;
66669;SDS011;53568;52.164;4.472;2023-12-20T04:44:32;13.58;;;8.69;;
66669;SDS011;53568;52.164;4.472;2023-12-20T04:46:58;12.92;;;8.36;;
66669;SDS011;53568;52.164;4.472;2023-12-20T04:49:23;13.16;;;8.40;;
66669;SDS011;53568;52.164;4.472;2023-12-20T04:51:49;13.02;;;8.31;;
66669;SDS011;53568;52.164;4.472;2023-12-20T04:54:14;12.14;;;7.88;;
66669;SDS011;53568;52.164;4.472;2023-12-20T04:56:40;12.96;;;8.39;;
66669;SDS011;53568;52.164;4.472;2023-12-20T04:59:06;13.12;;;8.37;;
66669;SDS011;53568;52.164;4.472;2023-12-20T05:01:31;12.37;;;7.97;;
66669;SDS011;53568;52.164;4.472;2023-12-20T05:03:57;12.12;;;7.66;;
66669;SDS011;53568;52.164;4.472;2023-12-20T05:06:22;15.02;;;9.30;;
66669;SDS011;53568;52.164;4.472;2023-12-20T05:08:48;13.71;;;8.64;;
66669;SDS011;53568;52.164;4.472;2023-12-20T05:11:13;12.08;;;7.78;;
66669;SDS011;53568;52.164;4.472;2023-12-20T05:13:40;11.32;;;7.31;;
66669;SDS011;53568;52.164;4.472;2023-12-20T05:16:05;13.55;;;8.50;;
66669;SDS011;53568;52.164;4.472;2023-12-20T05:18:31;14.34;;;9.02;;
66669;SDS011;53568;52.164;4.472;2023-12-20T05:20:56;12.79;;;8.26;;
66669;SDS011;53568;52.164;4.472;2023-12-20T05:23:23;12.39;;;7.98;;
66669;SDS011;53568;52.164;4.472;2023-12-20T05:25:48;13.44;;;8.57;;
66669;SDS011;53568;52.164;4.472;2023-12-20T05:28:14;13.11;;;8.39;;
66669;SDS011;53568;52.164;4.472;2023-12-20T05:30:40;12.78;;;8.29;;
66669;SDS011;53568;52.164;4.472;2023-12-20T05:33:06;13.52;;;8.62;;
66669;SDS011;53568;52.164;4.472;2023-12-20T05:35:31;12.44;;;8.10;;
66669;SDS011;53568;52.164;4.472;2023-12-20T05:37:57;13.72;;;8.75;;
66669;SDS011;53568;52.164;4.472;2023-12-20T05:40:22;14.58;;;9.26;;
66669;SDS011;53568;52.164;4.472;2023-12-20T05:42:48;12.52;;;8.12;;
66669;SDS011;53568;52.164;4.472;2023-12-20T05:45:14;13.62;;;8.57;;
66669;SDS011;53568;52.164;4.472;2023-12-20T05:47:40;12.93;;;8.21;;
66669;SDS011;53568;52.164;4.472;2023-12-20T05:50:05;13.00;;;8.49;;
66669;SDS011;53568;52.164;4.472;2023-12-20T05:52:31;12.30;;;7.95;;
66669;SDS011;53568;52.164;4.472;2023-12-20T05:54:57;12.91;;;8.33;;
66669;SDS011;53568;52.164;4.472;2023-12-20T05:57:26;13.65;;;8.74;;
66669;SDS011;53568;52.164;4.472;2023-12-20T05:59:52;14.51;;;9.13;;
66669;SDS011;53568;52.164;4.472;2023-12-20T06:02:17;14.07;;;8.90;;
66669;SDS011;53568;52.164;4.472;2023-12-20T06:04:42;14.53;;;9.27;;
66669;SDS011;53568;52.164;4.472;2023-12-20T06:07:11;14.82;;;9.35;;
66669;SDS011;53568;52.164;4.472;2023-12-20T06:09:38;14.57;;;9.29;;
66669;SDS011;53568;52.164;4.472;2023-12-20T06:12:03;14.54;;;9.38;;
66669;SDS011;53568;52.164;4.472;2023-12-20T06:14:29;13.85;;;8.81;;
66669;SDS011;53568;52.164;4.472;2023-12-20T06:16:56;13.57;;;8.68;;
66669;SDS011;53568;52.164;4.472;2023-12-20T06:19:22;13.85;;;9.00;;
66669;SDS011;53568;52.164;4.472;2023-12-20T06:21:48;12.59;;;8.19;;
66669;SDS011;53568;52.164;4.472;2023-12-20T06:24:13;13.67;;;8.75;;
66669;SDS011;53568;52.164;4.472;2023-12-20T06:26:39;12.58;;;8.21;;
66669;SDS011;53568;52.164;4.472;2023-12-20T06:29:05;14.03;;;8.86;;
66669;SDS011;53568;52.164;4.472;2023-12-20T06:31:31;14.15;;;9.07;;
66669;SDS011;53568;52.164;4.472;2023-12-20T06:33:58;13.71;;;8.80;;
66669;SDS011;53568;52.164;4.472;2023-12-20T06:36:25;14.88;;;9.53;;
66669;SDS011;53568;52.164;4.472;2023-12-20T06:38:51;14.16;;;9.10;;
66669;SDS011;53568;52.164;4.472;2023-12-20T06:41:17;13.27;;;8.48;;
66669;SDS011;53568;52.164;4.472;2023-12-20T06:43:43;12.64;;;8.33;;
66669;SDS011;53568;52.164;4.472;2023-12-20T06:46:09;12.96;;;8.45;;
66669;SDS011;53568;52.164;4.472;2023-12-20T06:48:34;14.31;;;9.01;;
66669;SDS011;53568;52.164;4.472;2023-12-20T06:51:00;14.92;;;9.27;;
66669;SDS011;53568;52.164;4.472;2023-12-20T06:53:29;15.28;;;9.65;;
66669;SDS011;53568;52.164;4.472;2023-12-20T06:55:55;16.13;;;10.14;;
66669;SDS011;53568;52.164;4.472;2023-12-20T06:58:23;15.15;;;9.45;;
66669;SDS011;53568;52.164;4.472;2023-12-20T07:00:49;16.66;;;10.28;;
66669;SDS011;53568;52.164;4.472;2023-12-20T07:03:16;15.79;;;9.87;;
66669;SDS011;53568;52.164;4.472;2023-12-20T07:05:42;15.04;;;9.43;;
66669;SDS011;53568;52.164;4.472;2023-12-20T07:08:07;14.23;;;9.14;;
66669;SDS011;53568;52.164;4.472;2023-12-20T07:10:33;15.89;;;10.04;;
66669;SDS011;53568;52.164;4.472;2023-12-20T07:12:58;14.27;;;9.22;;
66669;SDS011;53568;52.164;4.472;2023-12-20T07:15:24;13.92;;;9.00;;
66669;SDS011;53568;52.164;4.472;2023-12-20T07:17:49;16.05;;;10.02;;
66669;SDS011;53568;52.164;4.472;2023-12-20T07:20:15;14.62;;;9.26;;
66669;SDS011;53568;52.164;4.472;2023-12-20T07:22:40;14.14;;;9.03;;
66669;SDS011;53568;52.164;4.472;2023-12-20T07:25:06;14.43;;;9.07;;
66669;SDS011;53568;52.164;4.472;2023-12-20T07:27:32;14.23;;;8.96;;
66669;SDS011;53568;52.164;4.472;2023-12-20T07:29:58;14.68;;;9.21;;
66669;SDS011;53568;52.164;4.472;2023-12-20T07:32:23;12.62;;;8.14;;
66669;SDS011;53568;52.164;4.472;2023-12-20T07:34:49;14.79;;;9.46;;
66669;SDS011;53568;52.164;4.472;2023-12-20T07:37:14;14.39;;;9.20;;
66669;SDS011;53568;52.164;4.472;2023-12-20T07:39:40;14.24;;;9.14;;
66669;SDS011;53568;52.164;4.472;2023-12-20T07:42:06;12.83;;;8.28;;
66669;SDS011;53568;52.164;4.472;2023-12-20T07:44:32;13.80;;;8.82;;
66669;SDS011;53568;52.164;4.472;2023-12-20T07:46:58;14.81;;;9.29;;
66669;SDS011;53568;52.164;4.472;2023-12-20T07:49:24;15.21;;;9.52;;
66669;SDS011;53568;52.164;4.472;2023-12-20T07:51:49;16.18;;;9.90;;
66669;SDS011;53568;52.164;4.472;2023-12-20T07:54:15;15.35;;;9.38;;
66669;SDS011;53568;52.164;4.472;2023-12-20T07:56:41;13.19;;;8.36;;
66669;SDS011;53568;52.164;4.472;2023-12-20T07:59:07;14.21;;;8.98;;
66669;SDS011;53568;52.164;4.472;2023-12-20T08:01:32;12.97;;;8.20;;
66669;SDS011;53568;52.164;4.472;2023-12-20T08:03:58;14.01;;;8.79;;
66669;SDS011;53568;52.164;4.472;2023-12-20T08:06:23;14.38;;;9.08;;
66669;SDS011;53568;52.164;4.472;2023-12-20T08:08:49;15.23;;;9.56;;
66669;SDS011;53568;52.164;4.472;2023-12-20T08:11:14;15.22;;;9.43;;
66669;SDS011;53568;52.164;4.472;2023-12-20T08:13:40;15.59;;;9.70;;
66669;SDS011;53568;52.164;4.472;2023-12-20T08:16:05;13.79;;;8.76;;
66669;SDS011;53568;52.164;4.472;2023-12-20T08:18:31;13.92;;;8.78;;
66669;SDS011;53568;52.164;4.472;2023-12-20T08:20:56;13.68;;;8.56;;
66669;SDS011;53568;52.164;4.472;2023-12-20T08:23:22;15.08;;;9.23;;
66669;SDS011;53568;52.164;4.472;2023-12-20T08:25:47;15.66;;;9.59;;
66669;SDS011;53568;52.164;4.472;2023-12-20T08:28:13;14.32;;;8.93;;
66669;SDS011;53568;52.164;4.472;2023-12-20T08:30:39;13.77;;;8.57;;
66669;SDS011;53568;52.164;4.472;2023-12-20T08:33:05;12.19;;;7.70;;
66669;SDS011;53568;52.164;4.472;2023-12-20T08:35:38;13.27;;;8.25;;
66669;SDS011;53568;52.164;4.472;2023-12-20T08:38:05;13.90;;;8.59;;
66669;SDS011;53568;52.164;4.472;2023-12-20T08:40:31;13.47;;;8.50;;
66669;SDS011;53568;52.164;4.472;2023-12-20T08:42:56;13.91;;;8.66;;
66669;SDS011;53568;52.164;4.472;2023-12-20T08:45:21;13.94;;;8.65;;
66669;SDS011;53568;52.164;4.472;2023-12-20T08:47:47;13.42;;;8.50;;
66669;SDS011;53568;52.164;4.472;2023-12-20T08:50:13;14.11;;;8.83;;
66669;SDS011;53568;52.164;4.472;2023-12-20T08:52:38;13.84;;;8.74;;
66669;SDS011;53568;52.164;4.472;2023-12-20T08:55:04;11.21;;;7.24;;
66669;SDS011;53568;52.164;4.472;2023-12-20T08:57:30;13.64;;;8.56;;
66669;SDS011;53568;52.164;4.472;2023-12-20T08:59:57;12.47;;;7.96;;
66669;SDS011;53568;52.164;4.472;2023-12-20T09:02:22;13.19;;;8.42;;
66669;SDS011;53568;52.164;4.472;2023-12-20T09:04:48;13.42;;;8.51;;
66669;SDS011;53568;52.164;4.472;2023-12-20T09:07:23;12.92;;;8.24;;
66669;SDS011;53568;52.164;4.472;2023-12-20T09:09:50;13.16;;;8.40;;
66669;SDS011;53568;52.164;4.472;2023-12-20T09:12:17;13.67;;;8.60;;
66669;SDS011;53568;52.164;4.472;2023-12-20T09:14:44;14.53;;;9.04;;
66669;SDS011;53568;52.164;4.472;2023-12-20T09:17:10;14.39;;;8.81;;
66669;SDS011;53568;52.164;4.472;2023-12-20T09:19:37;14.89;;;9.22;;
66669;SDS011;53568;52.164;4.472;2023-12-20T09:22:04;12.11;;;7.75;;
66669;SDS011;53568;52.164;4.472;2023-12-20T09:24:30;14.31;;;8.96;;
66669;SDS011;53568;52.164;4.472;2023-12-20T09:26:56;14.76;;;9.24;;
66669;SDS011;53568;52.164;4.472;2023-12-20T09:29:22;15.18;;;9.38;;
66669;SDS011;53568;52.164;4.472;2023-12-20T09:31:48;14.41;;;8.90;;
66669;SDS011;53568;52.164;4.472;2023-12-20T09:34:14;14.60;;;9.05;;
66669;SDS011;53568;52.164;4.472;2023-12-20T09:36:40;13.78;;;8.71;;
66669;SDS011;53568;52.164;4.472;2023-12-20T09:39:11;13.73;;;8.64;;
66669;SDS011;53568;52.164;4.472;2023-12-20T09:41:44;13.78;;;8.65;;
66669;SDS011;53568;52.164;4.472;2023-12-20T09:44:14;13.39;;;8.54;;
66669;SDS011;53568;52.164;4.472;2023-12-20T09:46:43;13.15;;;8.41;;
66669;SDS011;53568;52.164;4.472;2023-12-20T09:49:10;11.76;;;7.60;;
66669;SDS011;53568;52.164;4.472;2023-12-20T09:51:37;12.14;;;7.77;;
66669;SDS011;53568;52.164;4.472;2023-12-20T09:54:03;13.71;;;8.56;;
66669;SDS011;53568;52.164;4.472;2023-12-20T09:56:29;12.98;;;8.20;;
66669;SDS011;53568;52.164;4.472;2023-12-20T09:58:55;12.81;;;8.11;;
66669;SDS011;53568;52.164;4.472;2023-12-20T10:01:21;14.07;;;8.80;;
66669;SDS011;53568;52.164;4.472;2023-12-20T10:03:48;14.09;;;8.66;;
66669;SDS011;53568;52.164;4.472;2023-12-20T10:06:19;14.79;;;9.13;;
66669;SDS011;53568;52.164;4.472;2023-12-20T10:08:44;14.54;;;8.97;;
66669;SDS011;53568;52.164;4.472;2023-12-20T10:11:10;14.03;;;8.77;;
66669;SDS011;53568;52.164;4.472;2023-12-20T10:13:42;13.25;;;8.20;;
66669;SDS011;53568;52.164;4.472;2023-12-20T10:16:08;14.92;;;9.19;;
66669;SDS011;53568;52.164;4.472;2023-12-20T10:18:34;12.72;;;7.91;;
66669;SDS011;53568;52.164;4.472;2023-12-20T10:21:00;11.93;;;7.53;;
66669;SDS011;53568;52.164;4.472;2023-12-20T10:23:25;14.00;;;8.77;;
66669;SDS011;53568;52.164;4.472;2023-12-20T10:25:58;12.68;;;8.01;;
66669;SDS011;53568;52.164;4.472;2023-12-20T10:28:25;12.56;;;7.91;;
66669;SDS011;53568;52.164;4.472;2023-12-20T10:30:54;13.40;;;8.33;;
66669;SDS011;53568;52.164;4.472;2023-12-20T10:33:24;14.35;;;8.83;;
66669;SDS011;53568;52.164;4.472;2023-12-20T10:35:51;13.49;;;8.41;;
66669;SDS011;53568;52.164;4.472;2023-12-20T10:38:18;13.90;;;8.70;;
66669;SDS011;53568;52.164;4.472;2023-12-20T10:40:45;13.90;;;8.63;;
66669;SDS011;53568;52.164;4.472;2023-12-20T10:43:11;13.86;;;8.59;;
66669;SDS011;53568;52.164;4.472;2023-12-20T10:45:38;12.87;;;8.10;;
66669;SDS011;53568;52.164;4.472;2023-12-20T10:48:04;11.18;;;7.15;;
66669;SDS011;53568;52.164;4.472;2023-12-20T10:50:30;13.19;;;8.29;;
66669;SDS011;53568;52.164;4.472;2023-12-20T10:52:57;11.06;;;6.92;;
66669;SDS011;53568;52.164;4.472;2023-12-20T10:55:23;12.15;;;7.59;;
66669;SDS011;53568;52.164;4.472;2023-12-20T10:57:54;12.33;;;7.75;;
66669;SDS011;53568;52.164;4.472;2023-12-20T11:00:26;12.06;;;7.58;;
66669;SDS011;53568;52.164;4.472;2023-12-20T11:02:55;11.45;;;7.26;;
66669;SDS011;53568;52.164;4.472;2023-12-20T11:08:12;12.75;;;7.99;;
66669;SDS011;53568;52.164;4.472;2023-12-20T11:10:56;12.34;;;7.59;;
66669;SDS011;53568;52.164;4.472;2023-12-20T11:13:43;12.54;;;7.78;;
66669;SDS011;53568;52.164;4.472;2023-12-20T11:16:19;13.44;;;8.27;;
66669;SDS011;53568;52.164;4.472;2023-12-20T11:18:45;12.46;;;7.73;;
66669;SDS011;53568;52.164;4.472;2023-12-20T11:21:10;13.10;;;8.17;;
66669;SDS011;53568;52.164;4.472;2023-12-20T11:23:36;12.01;;;7.74;;
66669;SDS011;53568;52.164;4.472;2023-12-20T11:26:02;12.50;;;7.91;;
66669;SDS011;53568;52.164;4.472;2023-12-20T11:28:28;12.02;;;7.62;;
66669;SDS011;53568;52.164;4.472;2023-12-20T11:30:55;11.82;;;7.51;;
66669;SDS011;53568;52.164;4.472;2023-12-20T11:33:32;11.61;;;7.34;;
66669;SDS011;53568;52.164;4.472;2023-12-20T11:36:02;12.51;;;7.88;;
66669;SDS011;53568;52.164;4.472;2023-12-20T11:39:10;14.30;;;8.85;;
66669;SDS011;53568;52.164;4.472;2023-12-20T11:41:23;12.74;;;7.96;;
66669;SDS011;53568;52.164;4.472;2023-12-20T11:43:49;12.89;;;8.03;;
66669;SDS011;53568;52.164;4.472;2023-12-20T11:46:19;13.43;;;8.45;;
66669;SDS011;53568;52.164;4.472;2023-12-20T11:48:45;13.55;;;8.57;;
66669;SDS011;53568;52.164;4.472;2023-12-20T11:51:13;12.99;;;8.09;;
66669;SDS011;53568;52.164;4.472;2023-12-20T11:53:42;13.98;;;8.70;;
66669;SDS011;53568;52.164;4.472;2023-12-20T11:56:08;12.66;;;7.93;;
66669;SDS011;53568;52.164;4.472;2023-12-20T11:58:34;13.53;;;8.41;;
66669;SDS011;53568;52.164;4.472;2023-12-20T12:01:01;13.25;;;8.21;;
66669;SDS011;53568;52.164;4.472;2023-12-20T12:03:32;12.72;;;7.98;;
66669;SDS011;53568;52.164;4.472;2023-12-20T12:05:57;12.60;;;7.94;;
66669;SDS011;53568;52.164;4.472;2023-12-20T12:08:23;12.92;;;8.18;;
66669;SDS011;53568;52.164;4.472;2023-12-20T12:10:49;12.61;;;7.88;;
66669;SDS011;53568;52.164;4.472;2023-12-20T12:13:15;13.46;;;8.34;;
66669;SDS011;53568;52.164;4.472;2023-12-20T12:15:41;13.43;;;8.27;;
66669;SDS011;53568;52.164;4.472;2023-12-20T12:18:07;13.07;;;8.13;;
66669;SDS011;53568;52.164;4.472;2023-12-20T12:20:33;12.54;;;7.76;;
66669;SDS011;53568;52.164;4.472;2023-12-20T12:23:08;13.51;;;8.26;;
66669;SDS011;53568;52.164;4.472;2023-12-20T12:25:37;14.31;;;8.63;;
66669;SDS011;53568;52.164;4.472;2023-12-20T12:28:02;14.62;;;8.85;;
66669;SDS011;53568;52.164;4.472;2023-12-20T12:30:28;14.26;;;8.81;;
66669;SDS011;53568;52.164;4.472;2023-12-20T12:32:55;12.98;;;8.06;;
66669;SDS011;53568;52.164;4.472;2023-12-20T12:35:21;13.45;;;8.29;;
66669;SDS011;53568;52.164;4.472;2023-12-20T12:37:47;12.92;;;8.08;;
66669;SDS011;53568;52.164;4.472;2023-12-20T12:40:13;12.48;;;7.78;;
66669;SDS011;53568;52.164;4.472;2023-12-20T12:42:40;12.26;;;7.68;;
66669;SDS011;53568;52.164;4.472;2023-12-20T12:45:07;12.15;;;7.53;;
66669;SDS011;53568;52.164;4.472;2023-12-20T12:47:34;11.19;;;7.15;;
66669;SDS011;53568;52.164;4.472;2023-12-20T12:50:00;10.59;;;6.75;;
66669;SDS011;53568;52.164;4.472;2023-12-20T12:52:26;12.03;;;7.62;;
66669;SDS011;53568;52.164;4.472;2023-12-20T12:54:52;12.30;;;7.67;;
66669;SDS011;53568;52.164;4.472;2023-12-20T12:57:18;12.70;;;7.89;;
66669;SDS011;53568;52.164;4.472;2023-12-20T12:59:45;13.29;;;8.14;;
66669;SDS011;53568;52.164;4.472;2023-12-20T13:02:14;11.94;;;7.30;;
66669;SDS011;53568;52.164;4.472;2023-12-20T13:04:40;12.80;;;7.87;;
66669;SDS011;53568;52.164;4.472;2023-12-20T13:07:07;12.58;;;7.75;;
66669;SDS011;53568;52.164;4.472;2023-12-20T13:09:35;11.19;;;7.00;;
66669;SDS011;53568;52.164;4.472;2023-12-20T13:12:01;13.73;;;8.53;;
66669;SDS011;53568;52.164;4.472;2023-12-20T13:14:29;12.64;;;7.77;;
66669;SDS011;53568;52.164;4.472;2023-12-20T13:16:55;12.30;;;7.70;;
66669;SDS011;53568;52.164;4.472;2023-12-20T13:19:21;11.27;;;7.07;;
66669;SDS011;53568;52.164;4.472;2023-12-20T13:21:46;10.33;;;6.55;;
66669;SDS011;53568;52.164;4.472;2023-12-20T13:24:12;12.24;;;7.61;;
66669;SDS011;53568;52.164;4.472;2023-12-20T13:26:38;11.86;;;7.36;;
66669;SDS011;53568;52.164;4.472;2023-12-20T13:29:03;11.88;;;7.47;;
66669;SDS011;53568;52.164;4.472;2023-12-20T13:31:28;11.65;;;7.42;;
66669;SDS011;53568;52.164;4.472;2023-12-20T13:33:54;11.64;;;7.43;;
66669;SDS011;53568;52.164;4.472;2023-12-20T13:36:19;11.01;;;6.98;;
66669;SDS011;53568;52.164;4.472;2023-12-20T13:38:45;11.44;;;7.25;;
66669;SDS011;53568;52.164;4.472;2023-12-20T13:41:10;12.29;;;7.61;;
66669;SDS011;53568;52.164;4.472;2023-12-20T13:43:36;14.25;;;8.79;;
66669;SDS011;53568;52.164;4.472;2023-12-20T13:46:01;13.41;;;8.28;;
66669;SDS011;53568;52.164;4.472;2023-12-20T13:48:27;12.38;;;7.63;;
66669;SDS011;53568;52.164;4.472;2023-12-20T13:50:52;13.67;;;8.41;;
66669;SDS011;53568;52.164;4.472;2023-12-20T13:53:19;12.01;;;7.58;;
66669;SDS011;53568;52.164;4.472;2023-12-20T13:55:45;13.38;;;8.35;;
66669;SDS011;53568;52.164;4.472;2023-12-20T13:58:10;12.52;;;7.78;;
66669;SDS011;53568;52.164;4.472;2023-12-20T14:00:36;12.37;;;7.70;;
66669;SDS011;53568;52.164;4.472;2023-12-20T14:03:02;13.33;;;8.24;;
66669;SDS011;53568;52.164;4.472;2023-12-20T14:05:29;12.47;;;7.72;;
66669;SDS011;53568;52.164;4.472;2023-12-20T14:07:54;12.01;;;7.42;;
66669;SDS011;53568;52.164;4.472;2023-12-20T14:10:23;11.94;;;7.40;;
66669;SDS011;53568;52.164;4.472;2023-12-20T14:12:51;11.98;;;7.51;;
66669;SDS011;53568;52.164;4.472;2023-12-20T14:15:17;12.42;;;7.77;;
66669;SDS011;53568;52.164;4.472;2023-12-20T14:17:43;12.58;;;7.74;;
66669;SDS011;53568;52.164;4.472;2023-12-20T14:20:08;11.69;;;7.19;;
66669;SDS011;53568;52.164;4.472;2023-12-20T14:22:36;11.47;;;7.11;;
66669;SDS011;53568;52.164;4.472;2023-12-20T14:25:03;11.79;;;7.40;;
66669;SDS011;53568;52.164;4.472;2023-12-20T14:27:29;11.16;;;6.97;;
66669;SDS011;53568;52.164;4.472;2023-12-20T14:29:55;13.10;;;8.03;;
66669;SDS011;53568;52.164;4.472;2023-12-20T14:32:21;12.78;;;7.92;;